Etusivu
METAR-TAF:

METAR-TAF

Lentoasemat :

Elkhart-Morton County Airport

Elkhart, Kansas, Yhdysvallat

Leveyspiiri: 37-00N, Pituuspiiri: 101-54W, korkeus merenpinnasta: 1099 m

Tämänhetkinen sää

Tämä raportti tehtiin 34 minuuttia sitten, kello 12.55 UTC
Tuuli 10 kn etelästä/kaakosta
Lämpötila 16°C
Kosteus 100%
Ilmanpaine 1022 hPa
Näkyvyys: 16.1 km
Pilvistä 400 ft:n korkeudessa
tihkusadetta

METAR: KEHA 191255Z AUTO 15010KT 10SM DZ OVC004 16/16 A3018 RMK AO2 P0002 T01630158

Aika: 08:29 (13:29 UTC)


TAF: puuttuu

Säähavainnot ja -ennusteet yli 4000 lentoasemalta (METAR- ja TAF-raportit).

Käytössä olevat sääasemat on merkitty karttaan keltaisilla ja punaisilla pisteillä.

Aseta hiiri pisteen päälle nähdäksesi sääaseman nimen.

Klikkaa sitten nähdäksesi säähavainnot ja -ennusteet.

Kartan vaihtaminen: klikkaa mustalla rastilla varustettuja vihreitä pisteitä, niin voit zoomata sisään; viivalla varustettua vihreää pistettä, niin voit zoomata ulos tai vihreitä nuolia, niin pääset viereisille kartoille.


METAR-TAF: